Accueil
METAR-TAF:

METAR-TAF

Aéroports :

Pocono Mountains Municipal Airport

Mount Pocono, Pennsylvanie, États-Unis

latitude: 41-08-20N, longitude: 075-23-46W, altitude: 584 m

Observation

Le bulletin a été fait il y a 19 minutes, à 19:53 UTC
Vent 26 kt de ouest/nord-ouest avec des rafales jusqu'à 40 kt
Température 1°C
Humidité 75%
Pression 997 hPa
Visibilité: 2.4 km
Nuages fragmentés à une hauteur de 2700 ft
Nuages fragmentés à une hauteur de 3300 ft
Ciel couvert à une hauteur de 4900 ft
neige faible

METAR: KMPO 101953Z AUTO 29026G40KT 1 1/2SM -SN BKN027 BKN033 OVC049 01/M03 A2945 RMK AO2 PK WND 28040/1946 VIS 3/4V5 UPB33E34SNE06B09E32B34 SLP990 P0000 T00061033

Heure: 16:12 (20:12 UTC)


TAF: absent

Observations et prévisions météorologiques de plus de 4000 aéroports (messages METAR et TAF).

Les stations disponibles sont représentées par des disques jaunes et rouges sur la carte.

Passer la souris dessus pour voir le nom de la station.

Cliquer dessus pour voir les observations et prévisions météorologiques.

Pour changer de carte: cliquez sur les boutons verts avec une croix noire pour zoomer, sur le bouton vert avec un tiret pour effectuer un zoom arrière, ou sur les flèches vertes pour les cartes adjacentes.


METAR-TAF: